< < Back
Terminal Aerodrome Forecast


Current Version              Previous Versions:   1  2  3  4  5  6  7  8  9  

Terminal Aerodrome Forecast

344
FTUS42 KFFC 020520
TAFMCN
TAF
KMCN 020520Z 0206/0306 00000KT P6SM SCT250
      TEMPO 0208/0212 4SM BR
     FM021400 VRB03KT P6SM SCT035 SCT250
     FM021700 VRB04KT P6SM BKN045
     FM030000 00000KT P6SM SCT050 SCT250=

Latest METAR

060
SAUS80 KWBC 022100 RRC
MTRMCN
METAR KMCN 022053Z 05005KT 10SM BKN043 BKN060 32/22 A3000 RMK AO2 SLP153
T03170222 58020


USA.gov is the U.S. government's official web portal to all federal, state and local government web resources and services.